Time;durP1;ratioP1;P1;durP2;ratioP2;P2;SDS_P1;SDS_P2;PMS_P1;PMS_P2;Temp;Humidity;BMP_temperature;BMP_pressure;BME280_temperature;BME280_humidity;BME280_pressure;Samples;Min_cycle;Max_cycle;Signal;HPM_P1;HPM_P2
2023/12/07 00:00:43;;;;;;;8.43;4.53;;;0.60;99.90;;;;;;2028688;29;20236;-84
2023/12/07 00:01:44;;;;;;;8.55;5.00;;;0.60;99.90;;;;;;2033854;29;20257;-84
2023/12/07 00:02:46;;;;;;;7.50;4.27;;;0.60;99.90;;;;;;2033658;29;20213;-84
2023/12/07 00:03:46;;;;;;;9.55;5.43;;;0.70;99.90;;;;;;2050571;28;20228;-83
2023/12/07 00:04:47;;;;;;;6.73;4.33;;;0.70;99.90;;;;;;2033778;29;20182;-84
2023/12/07 00:05:48;;;;;;;9.90;4.47;;;0.60;99.90;;;;;;2022268;29;20193;-84
2023/12/07 00:06:48;;;;;;;6.90;4.17;;;0.60;99.90;;;;;;2034203;29;20183;-83
2023/12/07 00:07:49;;;;;;;8.83;5.60;;;0.60;99.90;;;;;;2031056;29;20183;-84
2023/12/07 00:08:50;;;;;;;7.20;4.63;;;0.60;99.90;;;;;;2031586;29;20214;-84
2023/12/07 00:09:51;;;;;;;9.53;5.73;;;0.70;99.90;;;;;;2038998;29;20217;-84
2023/12/07 00:10:52;;;;;;;9.50;5.38;;;0.60;99.90;;;;;;2054275;28;20186;-85
2023/12/07 00:11:53;;;;;;;9.77;5.40;;;0.50;99.90;;;;;;2028872;29;20225;-84
2023/12/07 00:12:53;;;;;;;7.23;4.80;;;0.50;99.90;;;;;;2033999;29;20201;-85
2023/12/07 00:13:54;;;;;;;9.33;4.90;;;0.40;99.90;;;;;;2027928;28;20689;-84
2023/12/07 00:14:55;;;;;;;8.13;5.00;;;0.40;99.90;;;;;;2019378;29;20252;-84
2023/12/07 00:15:55;;;;;;;8.67;5.27;;;0.50;99.90;;;;;;2026158;29;20221;-84
2023/12/07 00:16:57;;;;;;;9.60;6.17;;;0.50;99.90;;;;;;2033376;28;20194;-84
2023/12/07 00:17:57;;;;;;;8.57;5.20;;;0.60;99.90;;;;;;2016849;28;20257;-85
2023/12/07 00:18:58;;;;;;;9.10;4.70;;;0.60;99.90;;;;;;2010362;28;20212;-86
2023/12/07 00:19:59;;;;;;;6.90;4.47;;;0.60;99.90;;;;;;2015756;29;20261;-85
2023/12/07 00:21:01;;;;;;;8.20;4.82;;;0.70;99.90;;;;;;2016921;29;20195;-85
2023/12/07 00:22:01;;;;;;;8.02;4.65;;;0.80;99.90;;;;;;2020139;29;20207;-85
2023/12/07 00:23:03;;;;;;;8.03;4.70;;;0.90;99.90;;;;;;2030894;28;20194;-85
2023/12/07 00:24:04;;;;;;;6.95;4.57;;;0.90;99.90;;;;;;2041242;29;20620;-86
2023/12/07 00:25:06;;;;;;;6.15;3.95;;;0.90;99.90;;;;;;2025520;29;20597;-85
2023/12/07 00:26:06;;;;;;;7.28;5.10;;;0.80;99.90;;;;;;2016153;28;20242;-85
2023/12/07 00:27:07;;;;;;;10.90;5.63;;;0.70;99.90;;;;;;2016171;28;20262;-84
2023/12/07 00:28:08;;;;;;;8.13;4.47;;;0.70;99.90;;;;;;2029432;29;20259;-84
2023/12/07 00:29:08;;;;;;;5.37;3.40;;;0.70;99.90;;;;;;2039204;29;20283;-85
2023/12/07 00:30:10;;;;;;;8.33;3.67;;;0.70;99.90;;;;;;2032650;29;20226;-86
2023/12/07 00:31:11;;;;;;;6.80;4.50;;;0.80;99.90;;;;;;2040919;28;20280;-85
2023/12/07 00:32:11;;;;;;;8.17;4.40;;;0.80;99.90;;;;;;2041325;29;20234;-85
2023/12/07 00:33:12;;;;;;;6.40;3.90;;;0.90;99.90;;;;;;2041447;29;20473;-86
2023/12/07 00:34:13;;;;;;;7.67;4.77;;;0.80;99.90;;;;;;2049099;28;20231;-86
2023/12/07 00:35:15;;;;;;;9.43;4.97;;;0.80;99.90;;;;;;2040876;29;20229;-85
2023/12/07 00:36:16;;;;;;;6.18;3.88;;;0.80;99.90;;;;;;2033724;29;20806;-85
2023/12/07 00:37:17;;;;;;;7.80;5.57;;;0.80;99.90;;;;;;2040035;29;20261;-85
2023/12/07 00:38:17;;;;;;;6.93;4.60;;;0.80;99.90;;;;;;2032250;28;20233;-86
2023/12/07 00:39:18;;;;;;;6.43;3.83;;;0.90;99.90;;;;;;2032520;29;20240;-85
2023/12/07 00:40:19;;;;;;;9.73;5.37;;;0.90;99.90;;;;;;2034985;29;20740;-86
2023/12/07 00:41:19;;;;;;;9.67;5.07;;;1.00;99.90;;;;;;2033948;28;20323;-85
2023/12/07 00:42:20;;;;;;;9.10;4.83;;;1.00;99.90;;;;;;2034214;29;20369;-85
2023/12/07 00:43:22;;;;;;;9.07;5.40;;;1.00;99.90;;;;;;2033798;28;20249;-85
2023/12/07 00:44:22;;;;;;;6.38;3.97;;;1.10;99.90;;;;;;2026309;28;20274;-86
2023/12/07 00:45:23;;;;;;;8.50;4.57;;;1.00;99.90;;;;;;2025991;29;20241;-85
2023/12/07 00:46:24;;;;;;;6.53;4.57;;;1.00;99.90;;;;;;2032590;28;20288;-86
2023/12/07 00:47:25;;;;;;;10.30;5.13;;;1.00;99.90;;;;;;2032452;28;20316;-85
2023/12/07 00:48:25;;;;;;;9.37;5.57;;;0.90;99.90;;;;;;2021895;29;20274;-85
2023/12/07 00:49:26;;;;;;;6.97;4.23;;;0.90;99.90;;;;;;2011830;28;20324;-85
2023/12/07 00:50:27;;;;;;;7.73;5.20;;;0.90;99.90;;;;;;2026288;28;20234;-85
2023/12/07 00:51:27;;;;;;;8.37;4.87;;;0.90;99.90;;;;;;2031558;29;20244;-86
2023/12/07 00:52:28;;;;;;;7.43;4.17;;;0.90;99.90;;;;;;2029273;29;20239;-85
2023/12/07 00:53:29;;;;;;;8.37;5.43;;;0.90;99.90;;;;;;2041190;29;20261;-86
2023/12/07 00:54:29;;;;;;;10.20;5.90;;;0.90;99.90;;;;;;2033596;29;20717;-85
2023/12/07 00:55:30;;;;;;;7.40;4.90;;;1.00;99.90;;;;;;2025822;28;20269;-85
2023/12/07 00:56:31;;;;;;;10.23;6.00;;;1.00;99.90;;;;;;2025473;28;20234;-85
2023/12/07 00:57:31;;;;;;;6.73;4.80;;;0.90;99.90;;;;;;2021193;29;20266;-85
2023/12/07 00:58:32;;;;;;;8.90;4.90;;;0.90;99.90;;;;;;2023804;29;20241;-84
2023/12/07 00:59:36;;;;;;;5.57;3.90;;;0.80;99.90;;;;;;2031599;29;20240;-84
2023/12/07 01:00:37;;;;;;;7.15;3.83;;;0.70;99.90;;;;;;2031850;28;20731;-85
2023/12/07 01:01:38;;;;;;;7.17;4.93;;;0.70;99.90;;;;;;2032408;29;20225;-84
2023/12/07 01:02:39;;;;;;;8.48;5.05;;;0.70;99.90;;;;;;2031044;29;20233;-84
2023/12/07 01:03:40;;;;;;;6.57;4.18;;;0.70;99.90;;;;;;2027902;29;20316;-84
2023/12/07 01:04:41;;;;;;;7.40;5.10;;;0.80;99.90;;;;;;2035328;29;20252;-85
2023/12/07 01:05:42;;;;;;;8.63;5.80;;;0.80;99.90;;;;;;2032506;28;20543;-85
2023/12/07 01:06:42;;;;;;;7.17;4.23;;;0.80;99.90;;;;;;2033793;29;20256;-85
2023/12/07 01:07:43;;;;;;;9.77;5.33;;;0.80;99.90;;;;;;2025182;28;20226;-86
2023/12/07 01:08:43;;;;;;;6.93;4.13;;;0.80;99.90;;;;;;2025152;28;20233;-85
2023/12/07 01:09:44;;;;;;;8.50;5.40;;;0.80;99.90;;;;;;2025210;28;20238;-85
2023/12/07 01:10:45;;;;;;;8.93;5.77;;;0.90;99.90;;;;;;2017411;29;20783;-84
2023/12/07 01:11:46;;;;;;;9.40;5.07;;;0.90;99.90;;;;;;2023611;28;20307;-85
2023/12/07 01:12:46;;;;;;;8.77;5.30;;;0.90;99.90;;;;;;2033084;28;20196;-85
2023/12/07 01:13:47;;;;;;;8.20;5.17;;;0.80;99.90;;;;;;2040808;29;20324;-85
2023/12/07 01:14:48;;;;;;;8.77;5.83;;;0.90;99.90;;;;;;2037826;29;20212;-85
2023/12/07 01:15:49;;;;;;;8.17;4.50;;;0.90;99.90;;;;;;2017831;28;20604;-86
2023/12/07 01:16:49;;;;;;;6.67;5.50;;;0.90;99.90;;;;;;2033508;28;20186;-85
2023/12/07 01:17:50;;;;;;;7.63;5.27;;;1.00;99.90;;;;;;2040246;29;20677;-85
2023/12/07 01:18:51;;;;;;;8.97;5.43;;;1.00;99.90;;;;;;2034111;29;20697;-86
2023/12/07 01:19:51;;;;;;;9.13;5.80;;;1.00;99.90;;;;;;2039680;29;20178;-85
2023/12/07 01:20:52;;;;;;;8.50;5.17;;;1.00;99.90;;;;;;2032758;29;20178;-85
2023/12/07 01:21:53;;;;;;;8.27;4.43;;;1.00;99.90;;;;;;2028597;28;20243;-85
2023/12/07 01:22:53;;;;;;;11.10;5.17;;;1.00;99.90;;;;;;2022177;29;20224;-85
2023/12/07 01:23:54;;;;;;;8.77;5.23;;;0.90;99.90;;;;;;2017995;28;20222;-86
2023/12/07 01:24:55;;;;;;;9.17;5.67;;;0.90;99.90;;;;;;2025154;29;20246;-85
2023/12/07 01:25:55;;;;;;;8.93;5.23;;;0.90;99.90;;;;;;2024865;29;20197;-85
2023/12/07 01:26:56;;;;;;;7.33;4.67;;;0.90;99.90;;;;;;2010030;29;20234;-85
2023/12/07 01:27:57;;;;;;;11.23;5.83;;;0.90;99.90;;;;;;2017274;29;20273;-86
2023/12/07 01:28:59;;;;;;;10.70;6.33;;;1.00;99.90;;;;;;2023384;29;20235;-85
2023/12/07 01:30:00;;;;;;;8.15;4.68;;;1.00;99.90;;;;;;2038516;29;20199;-85
2023/12/07 01:31:00;;;;;;;11.33;5.73;;;1.00;99.90;;;;;;2032988;29;20188;-85
2023/12/07 01:32:01;;;;;;;9.37;5.70;;;0.90;99.90;;;;;;2025751;29;20232;-85
2023/12/07 01:33:02;;;;;;;11.53;6.50;;;0.90;99.90;;;;;;2032984;28;20694;-85
2023/12/07 01:34:02;;;;;;;8.20;4.97;;;0.90;99.90;;;;;;2032190;28;20220;-85
2023/12/07 01:35:04;;;;;;;8.03;5.47;;;0.90;99.90;;;;;;2024473;28;20194;-85
2023/12/07 01:36:05;;;;;;;9.35;5.30;;;0.90;99.90;;;;;;2034881;28;20196;-85
2023/12/07 01:37:05;;;;;;;9.53;4.27;;;0.80;99.90;;;;;;2026511;28;20328;-85
2023/12/07 01:38:06;;;;;;;6.47;4.33;;;0.80;99.90;;;;;;2026561;28;20229;-85
2023/12/07 01:39:08;;;;;;;9.30;5.83;;;0.70;99.90;;;;;;2035020;29;20236;-85
2023/12/07 01:40:10;;;;;;;9.32;5.25;;;0.60;99.90;;;;;;2024317;29;20219;-85
2023/12/07 01:41:11;;;;;;;9.43;5.72;;;0.70;99.90;;;;;;2034178;29;20240;-85
2023/12/07 01:42:14;;;;;;;8.63;5.80;;;0.70;99.90;;;;;;2034272;29;20248;-86
2023/12/07 01:43:15;;;;;;;11.70;5.20;;;0.70;99.90;;;;;;2043118;28;20260;-85
2023/12/07 01:44:15;;;;;;;7.33;4.47;;;0.50;99.90;;;;;;2041847;28;20240;-84
2023/12/07 01:45:16;;;;;;;8.43;5.70;;;0.40;99.90;;;;;;2026730;28;20282;-84
2023/12/07 01:46:17;;;;;;;11.23;6.00;;;0.30;99.90;;;;;;2034558;28;20226;-84
2023/12/07 01:47:18;;;;;;;7.60;5.13;;;0.40;99.90;;;;;;2042145;28;20284;-84
2023/12/07 01:48:20;;;;;;;9.63;5.83;;;0.30;99.90;;;;;;2042478;28;20213;-84
2023/12/07 01:49:21;;;;;;;8.60;5.50;;;0.20;99.90;;;;;;2042731;28;20227;-84
2023/12/07 01:50:23;;;;;;;7.38;4.72;;;0.20;99.90;;;;;;2020087;28;20238;-84
2023/12/07 01:51:24;;;;;;;6.47;4.28;;;0.20;99.90;;;;;;2027851;28;20257;-84
2023/12/07 01:52:27;;;;;;;7.80;4.37;;;0.10;99.90;;;;;;2042637;28;20248;-84
2023/12/07 01:53:28;;;;;;;7.95;5.00;;;0.00;99.90;;;;;;2041865;28;20273;-84
2023/12/07 01:54:30;;;;;;;8.02;5.07;;;0.00;99.90;;;;;;2042408;28;20267;-84
2023/12/07 01:55:32;;;;;;;8.07;5.30;;;-0.10;99.90;;;;;;2041818;28;20228;-83
2023/12/07 01:56:33;;;;;;;7.88;4.95;;;-0.10;99.90;;;;;;2029378;28;20229;-84
2023/12/07 01:57:35;;;;;;;6.53;5.00;;;-0.20;99.90;;;;;;2049922;28;20242;-85
2023/12/07 01:58:36;;;;;;;8.20;4.88;;;-0.20;99.90;;;;;;2025759;29;20230;-84
2023/12/07 01:59:36;;;;;;;8.07;4.80;;;-0.20;99.90;;;;;;2034315;28;20224;-85
2023/12/07 02:00:38;;;;;;;9.10;5.43;;;-0.20;99.90;;;;;;2026496;28;20540;-84
2023/12/07 02:01:39;;;;;;;8.85;5.35;;;-0.20;99.90;;;;;;2033809;28;20230;-84
2023/12/07 02:02:40;;;;;;;9.63;5.80;;;-0.30;99.90;;;;;;2033244;28;20233;-84
2023/12/07 02:03:40;;;;;;;7.93;4.87;;;-0.30;99.90;;;;;;2041263;28;20233;-84
2023/12/07 02:04:41;;;;;;;7.53;4.60;;;-0.40;99.90;;;;;;2043928;28;20562;-85
2023/12/07 02:05:46;;;;;;;6.60;4.43;;;-0.50;99.90;;;;;;2040701;28;20666;-85
2023/12/07 02:06:47;;;;;;;9.93;5.65;;;-0.60;99.90;;;;;;2030444;28;20217;-84
2023/12/07 02:07:47;;;;;;;7.90;5.10;;;-0.60;99.90;;;;;;2027096;29;20182;-84
2023/12/07 02:08:48;;;;;;;8.03;4.70;;;-0.60;99.90;;;;;;2033877;28;20690;-84
2023/12/07 02:09:50;;;;;;;7.63;5.03;;;-0.60;99.90;;;;;;2033888;29;20193;-83
2023/12/07 02:10:52;;;;;;;6.75;4.13;;;-0.60;99.90;;;;;;2036412;28;20193;-84
2023/12/07 02:11:53;;;;;;;6.32;4.47;;;-0.70;99.90;;;;;;2021032;29;20652;-85
2023/12/07 02:12:54;;;;;;;7.88;4.72;;;-0.70;99.90;;;;;;2065910;28;20194;-84
2023/12/07 02:13:57;;;;;;;8.27;5.53;;;-0.70;99.90;;;;;;2040832;28;20216;-84
2023/12/07 02:15:00;;;;;;;8.75;5.13;;;-0.70;99.90;;;;;;2033151;29;20186;-84
2023/12/07 02:16:12;;;;;;;7.40;4.93;;;-0.70;99.90;;;;;;2032130;29;20284;-84
2023/12/07 02:17:36;;;;;;;7.53;5.13;;;-0.70;99.90;;;;;;2027424;28;20233;-84
2023/12/07 02:18:54;;;;;;;7.93;4.30;;;-0.70;99.90;;;;;;2032425;28;20228;-84
2023/12/07 02:20:10;;;;;;;7.20;5.10;;;-0.70;99.90;;;;;;2023789;29;20241;-84
2023/12/07 02:21:22;;;;;;;10.73;5.25;;;-0.70;99.90;;;;;;2028715;28;20233;-85
2023/12/07 02:22:37;;;;;;;10.55;5.70;;;-0.80;99.90;;;;;;2024644;29;20229;-85
2023/12/07 02:23:41;;;;;;;9.27;5.15;;;-0.90;99.90;;;;;;2027380;29;20625;-84
2023/12/07 02:24:49;;;;;;;7.60;4.97;;;-0.80;99.90;;;;;;2026372;29;20249;-85
2023/12/07 02:26:49;;;;;;;8.82;5.47;;;-0.90;99.90;;;;;;2023534;29;20685;-85
2023/12/07 02:27:50;;;;;;;8.60;5.05;;;-0.90;99.90;;;;;;2036166;28;20282;-84
2023/12/07 02:28:52;;;;;;;8.20;4.97;;;-1.00;99.90;;;;;;2040564;29;20247;-85
2023/12/07 02:29:52;;;;;;;9.77;5.13;;;-1.00;99.90;;;;;;2032718;29;20213;-85
2023/12/07 02:30:53;;;;;;;8.33;5.40;;;-1.00;99.90;;;;;;2035338;28;20587;-84
2023/12/07 02:31:54;;;;;;;9.27;5.70;;;-1.10;99.90;;;;;;2031740;29;20208;-84
2023/12/07 02:32:55;;;;;;;7.55;4.70;;;-1.00;99.90;;;;;;2032425;29;20550;-84
2023/12/07 02:33:56;;;;;;;11.10;5.50;;;-1.00;99.90;;;;;;2033152;29;20230;-84
2023/12/07 02:34:56;;;;;;;6.70;4.90;;;-1.00;99.90;;;;;;2043217;28;20191;-85
2023/12/07 02:35:57;;;;;;;10.40;5.57;;;-1.00;99.90;;;;;;2039809;28;20185;-84
2023/12/07 02:37:00;;;;;;;9.07;5.27;;;-1.00;99.90;;;;;;2039295;28;20670;-83
2023/12/07 02:38:02;;;;;;;7.05;4.97;;;-0.90;99.90;;;;;;2033042;29;20598;-83
2023/12/07 02:39:04;;;;;;;8.00;4.90;;;-1.00;99.90;;;;;;2064317;28;20624;-84
2023/12/07 02:40:10;;;;;;;8.70;5.10;;;-1.00;99.90;;;;;;2024242;28;20738;-85
2023/12/07 02:41:11;;;;;;;8.50;4.80;;;-1.00;99.90;;;;;;2027426;28;20235;-84
2023/12/07 02:42:14;;;;;;;10.13;5.43;;;-1.00;99.90;;;;;;2025375;28;20723;-84
2023/12/07 02:43:15;;;;;;;8.40;5.07;;;-1.00;99.90;;;;;;2032192;28;20549;-83
2023/12/07 02:44:16;;;;;;;8.60;5.55;;;-1.10;99.90;;;;;;2040267;29;20229;-84
2023/12/07 02:45:17;;;;;;;11.40;5.70;;;-1.10;99.90;;;;;;2042437;29;20234;-85
2023/12/07 02:46:18;;;;;;;8.60;5.37;;;-1.10;99.90;;;;;;2026299;29;20233;-85
2023/12/07 02:47:19;;;;;;;8.68;5.15;;;-1.10;99.90;;;;;;2039940;28;20246;-84
2023/12/07 02:48:21;;;;;;;10.73;6.00;;;-1.20;99.90;;;;;;2041272;29;20234;-85
2023/12/07 02:49:21;;;;;;;8.52;5.45;;;-1.10;99.90;;;;;;2038708;29;20254;-84
2023/12/07 02:50:22;;;;;;;8.60;5.20;;;-1.20;99.90;;;;;;2041130;29;20714;-84
2023/12/07 02:51:23;;;;;;;7.93;5.63;;;-1.20;99.90;;;;;;2036670;29;20231;-84
2023/12/07 02:52:23;;;;;;;8.90;5.47;;;-1.20;99.90;;;;;;2035075;28;20256;-84
2023/12/07 02:53:24;;;;;;;14.00;5.43;;;-1.20;99.90;;;;;;2023565;28;20253;-85
2023/12/07 02:54:25;;;;;;;7.30;5.27;;;-1.20;99.90;;;;;;2024479;28;20240;-84
2023/12/07 02:55:26;;;;;;;7.83;5.33;;;-1.20;99.90;;;;;;2026734;28;20481;-83
2023/12/07 02:56:26;;;;;;;10.77;6.10;;;-1.20;99.90;;;;;;2036297;29;20632;-84
2023/12/07 02:57:27;;;;;;;10.23;5.63;;;-1.30;99.90;;;;;;2031654;29;20237;-83
2023/12/07 02:58:28;;;;;;;17.80;7.07;;;-1.30;99.90;;;;;;2038825;29;20240;-85
2023/12/07 02:59:28;;;;;;;24.03;10.80;;;-1.30;99.90;;;;;;2040045;29;20297;-85
2023/12/07 03:00:29;;;;;;;15.40;6.27;;;-1.20;99.90;;;;;;2025595;29;20253;-84
2023/12/07 03:01:30;;;;;;;10.07;6.17;;;-1.20;99.90;;;;;;2027592;29;20230;-85
2023/12/07 03:02:30;;;;;;;9.23;6.00;;;-1.20;99.90;;;;;;2025111;29;20233;-84
2023/12/07 03:03:31;;;;;;;7.93;5.17;;;-1.30;99.90;;;;;;2029142;29;20244;-85
2023/12/07 03:04:32;;;;;;;13.43;5.27;;;-1.40;99.90;;;;;;2040820;29;20239;-85
2023/12/07 03:05:33;;;;;;;9.25;5.35;;;-1.40;99.90;;;;;;2030717;29;20286;-84
2023/12/07 03:06:33;;;;;;;8.00;5.60;;;-1.40;99.90;;;;;;2025397;29;21585;-85
2023/12/07 03:07:34;;;;;;;9.00;5.50;;;-1.40;99.90;;;;;;2032882;28;20318;-85
2023/12/07 03:08:35;;;;;;;9.88;5.55;;;-1.50;99.90;;;;;;2017989;29;20282;-85
2023/12/07 03:09:36;;;;;;;9.23;5.10;;;-1.40;99.90;;;;;;2033101;29;20233;-85
2023/12/07 03:10:36;;;;;;;7.90;5.47;;;-1.50;99.90;;;;;;2025352;29;20259;-85
2023/12/07 03:11:37;;;;;;;6.80;4.47;;;-1.50;99.90;;;;;;2024226;29;20261;-85
2023/12/07 03:12:38;;;;;;;7.83;5.20;;;-1.60;99.90;;;;;;2024451;28;20307;-85
2023/12/07 03:13:38;;;;;;;9.40;4.30;;;-1.60;99.90;;;;;;2027360;28;20253;-84
2023/12/07 03:14:39;;;;;;;12.43;6.43;;;-1.60;99.90;;;;;;2054614;28;20233;-83
2023/12/07 03:15:40;;;;;;;8.47;5.63;;;-1.60;99.90;;;;;;2030404;29;20241;-84
2023/12/07 03:16:40;;;;;;;7.87;5.00;;;-1.60;99.90;;;;;;2034709;28;20221;-84
2023/12/07 03:17:41;;;;;;;9.70;4.73;;;-1.60;99.90;;;;;;2027053;28;20234;-85
2023/12/07 03:18:42;;;;;;;8.70;4.97;;;-1.70;99.90;;;;;;2025396;29;20257;-85
2023/12/07 03:19:43;;;;;;;11.70;5.67;;;-1.70;99.90;;;;;;2029858;28;20233;-85
2023/12/07 03:20:43;;;;;;;8.50;5.40;;;-1.70;99.90;;;;;;2033259;29;20278;-85
2023/12/07 03:21:44;;;;;;;9.67;5.07;;;-1.70;99.90;;;;;;2038273;28;20318;-85
2023/12/07 03:22:45;;;;;;;8.97;4.50;;;-1.60;99.90;;;;;;2033636;28;20808;-85
2023/12/07 03:23:45;;;;;;;8.30;4.37;;;-1.60;99.90;;;;;;2023748;29;20269;-85
2023/12/07 03:24:51;;;;;;;8.07;4.60;;;-1.70;99.90;;;;;;2025190;29;20663;-85
2023/12/07 03:25:51;;;;;;;7.88;4.57;;;-1.60;99.90;;;;;;2032920;29;20780;-85
2023/12/07 03:26:53;;;;;;;7.20;3.63;;;-1.70;99.90;;;;;;2030375;28;20188;-83
2023/12/07 03:27:53;;;;;;;8.77;4.93;;;-1.80;99.90;;;;;;2017967;28;20185;-84
2023/12/07 03:28:54;;;;;;;6.77;4.30;;;-1.80;99.90;;;;;;2030079;28;20220;-84
2023/12/07 03:29:55;;;;;;;6.80;4.70;;;-1.80;99.90;;;;;;2024282;28;20194;-84
2023/12/07 03:30:56;;;;;;;6.97;3.70;;;-1.70;99.90;;;;;;2023681;28;20233;-84
2023/12/07 03:31:56;;;;;;;7.47;5.03;;;-1.80;99.90;;;;;;2032572;28;20214;-84
2023/12/07 03:32:57;;;;;;;6.70;4.53;;;-1.80;99.90;;;;;;2026159;28;20193;-84
2023/12/07 03:33:59;;;;;;;7.00;4.43;;;-1.80;99.90;;;;;;2020871;29;20197;-84
2023/12/07 03:34:59;;;;;;;7.75;4.38;;;-1.80;99.90;;;;;;2017586;29;20217;-84
2023/12/07 03:36:00;;;;;;;19.27;5.90;;;-1.90;99.90;;;;;;2020022;29;20183;-84
2023/12/07 03:37:01;;;;;;;50.90;11.50;;;-1.90;99.90;;;;;;2029911;28;20258;-84
2023/12/07 03:38:02;;;;;;;30.67;7.57;;;-1.90;99.90;;;;;;2025056;28;20710;-84
2023/12/07 03:39:04;;;;;;;21.52;5.85;;;-1.90;99.90;;;;;;2031727;29;20212;-84
2023/12/07 03:40:06;;;;;;;19.60;6.22;;;-1.90;99.90;;;;;;2029510;28;21657;-84
2023/12/07 03:41:07;;;;;;;16.65;6.40;;;-2.00;99.90;;;;;;2024150;28;20295;-84
2023/12/07 03:42:07;;;;;;;13.17;5.30;;;-1.90;99.90;;;;;;2031913;29;20316;-84
2023/12/07 03:43:08;;;;;;;10.47;5.30;;;-1.90;99.90;;;;;;2034845;28;20225;-84
2023/12/07 03:44:09;;;;;;;8.40;5.10;;;-1.90;99.90;;;;;;2023039;28;20241;-84
2023/12/07 03:45:10;;;;;;;6.87;4.17;;;-2.00;99.90;;;;;;2022223;29;20229;-84
2023/12/07 03:46:11;;;;;;;10.05;5.50;;;-1.90;99.90;;;;;;2032997;28;20316;-84
2023/12/07 03:47:11;;;;;;;8.47;4.30;;;-2.00;99.90;;;;;;2015360;28;20218;-84
2023/12/07 03:48:12;;;;;;;7.77;4.47;;;-2.10;99.90;;;;;;2015351;28;20320;-84
2023/12/07 03:49:13;;;;;;;7.55;4.78;;;-2.10;99.90;;;;;;2011402;28;20247;-83
2023/12/07 03:50:14;;;;;;;4.73;3.00;;;-2.20;99.90;;;;;;2025456;28;20244;-83
2023/12/07 03:51:16;;;;;;;6.10;5.07;;;-2.30;99.90;;;;;;2055391;28;20277;-84
2023/12/07 03:52:17;;;;;;;7.22;4.78;;;-2.30;99.90;;;;;;2015436;29;20304;-84
2023/12/07 03:53:17;;;;;;;7.50;4.87;;;-2.40;99.90;;;;;;2017348;28;20419;-84
2023/12/07 03:54:18;;;;;;;7.77;3.60;;;-2.40;99.90;;;;;;2018224;28;20262;-83
2023/12/07 03:55:19;;;;;;;7.75;3.78;;;-2.40;99.90;;;;;;2023691;29;20734;-84
2023/12/07 03:56:27;;;;;;;6.33;4.27;;;-2.40;99.90;;;;;;2038539;29;20279;-83
2023/12/07 03:57:28;;;;;;;5.30;3.38;;;-2.40;99.90;;;;;;2033767;28;20238;-84
2023/12/07 03:58:29;;;;;;;6.20;3.45;;;-2.40;99.90;;;;;;2017329;28;20292;-85
2023/12/07 03:59:29;;;;;;;5.57;4.20;;;-2.40;99.90;;;;;;2021978;29;20239;-85
2023/12/07 04:00:32;;;;;;;7.03;4.30;;;-2.40;99.90;;;;;;2022740;28;20260;-85
2023/12/07 04:01:32;;;;;;;6.15;4.20;;;-2.30;99.90;;;;;;2035045;28;20238;-85
2023/12/07 04:02:33;;;;;;;5.13;3.30;;;-2.40;99.90;;;;;;2027688;28;20245;-85
2023/12/07 04:03:34;;;;;;;8.15;4.53;;;-2.40;99.90;;;;;;2027776;29;20268;-84
2023/12/07 04:04:38;;;;;;;9.33;5.20;;;-2.50;99.90;;;;;;2018265;28;20230;-85
2023/12/07 04:05:39;;;;;;;7.47;4.10;;;-2.60;99.90;;;;;;2051751;28;20236;-85
2023/12/07 04:06:39;;;;;;;6.50;4.17;;;-2.60;99.90;;;;;;2033215;29;20231;-86
2023/12/07 04:07:41;;;;;;;5.87;3.73;;;-2.60;99.90;;;;;;2032192;29;20287;-85
2023/12/07 04:08:42;;;;;;;6.22;3.72;;;-2.70;99.90;;;;;;2032288;29;20227;-86
2023/12/07 04:09:42;;;;;;;5.63;3.77;;;-2.60;99.90;;;;;;2029832;29;20263;-86
2023/12/07 04:10:43;;;;;;;7.80;3.90;;;-2.60;99.90;;;;;;2030550;28;20225;-86
2023/12/07 04:11:45;;;;;;;6.38;3.63;;;-2.70;99.90;;;;;;2034734;28;20248;-85
2023/12/07 04:12:46;;;;;;;6.72;3.78;;;-2.60;99.90;;;;;;2031922;28;20261;-85
2023/12/07 04:13:47;;;;;;;4.03;2.70;;;-2.60;99.90;;;;;;2034798;28;20708;-86
2023/12/07 04:14:48;;;;;;;5.17;3.37;;;-2.70;99.90;;;;;;2016489;29;20193;-86
2023/12/07 04:15:48;;;;;;;7.77;4.03;;;-2.70;99.90;;;;;;2061994;28;20207;-86
2023/12/07 04:16:49;;;;;;;5.90;3.60;;;-2.60;99.90;;;;;;2035006;28;20193;-86
2023/12/07 04:17:50;;;;;;;5.73;4.00;;;-2.60;99.90;;;;;;2034434;28;20189;-86
2023/12/07 04:18:51;;;;;;;5.70;2.93;;;-2.60;99.90;;;;;;2024968;29;20256;-86
2023/12/07 04:19:51;;;;;;;5.70;3.40;;;-2.60;99.90;;;;;;2028924;29;20188;-86
2023/12/07 04:20:52;;;;;;;5.27;3.33;;;-2.70;99.90;;;;;;2044451;28;20226;-85
2023/12/07 04:21:53;;;;;;;5.33;3.23;;;-2.70;99.90;;;;;;2029353;28;20195;-86
2023/12/07 04:22:54;;;;;;;5.90;3.90;;;-2.70;99.90;;;;;;2025642;28;20189;-85
2023/12/07 04:23:55;;;;;;;5.95;4.00;;;-2.70;99.90;;;;;;2034318;28;20254;-86
2023/12/07 04:24:55;;;;;;;5.83;3.77;;;-2.70;99.90;;;;;;2033546;29;20188;-86
2023/12/07 04:25:56;;;;;;;7.13;3.00;;;-2.70;99.90;;;;;;2028731;28;20197;-86
2023/12/07 04:26:57;;;;;;;4.70;3.03;;;-2.80;99.90;;;;;;2024509;29;20215;-85
2023/12/07 04:27:59;;;;;;;4.97;3.33;;;-2.80;99.90;;;;;;2025198;28;20731;-85
2023/12/07 04:29:00;;;;;;;6.00;3.38;;;-2.80;99.90;;;;;;2028957;28;20188;-85
2023/12/07 04:30:01;;;;;;;5.50;3.23;;;-2.80;99.90;;;;;;2015249;28;20183;-85
2023/12/07 04:31:02;;;;;;;4.83;2.93;;;-2.90;99.90;;;;;;2023701;28;20253;-86
2023/12/07 04:32:03;;;;;;;7.53;3.83;;;-3.00;99.90;;;;;;2026227;29;20431;-85
2023/12/07 04:33:04;;;;;;;7.00;4.28;;;-2.90;99.90;;;;;;2026896;28;20697;-85
2023/12/07 04:34:05;;;;;;;5.73;4.00;;;-3.00;99.90;;;;;;2029103;28;20425;-85
2023/12/07 04:35:06;;;;;;;8.93;5.20;;;-3.00;99.90;;;;;;2034130;28;20247;-85
2023/12/07 04:36:07;;;;;;;5.88;4.43;;;-3.10;99.90;;;;;;2040024;28;20269;-86
2023/12/07 04:37:08;;;;;;;6.68;3.97;;;-3.10;99.90;;;;;;2039804;29;20234;-86
2023/12/07 04:38:09;;;;;;;5.00;3.13;;;-3.10;99.90;;;;;;2043271;28;20241;-86
2023/12/07 04:39:09;;;;;;;4.50;3.20;;;-3.20;99.90;;;;;;2034655;29;20233;-85
2023/12/07 04:40:11;;;;;;;6.53;3.40;;;-3.20;99.90;;;;;;2071738;28;20248;-85
2023/12/07 04:41:12;;;;;;;5.45;3.15;;;-3.30;99.90;;;;;;2072711;28;20307;-85
2023/12/07 04:42:12;;;;;;;4.23;2.90;;;-3.40;99.90;;;;;;2031257;28;20244;-86
2023/12/07 04:43:13;;;;;;;4.43;3.27;;;-3.30;99.90;;;;;;2023800;28;20284;-84
2023/12/07 04:44:14;;;;;;;4.00;2.70;;;-3.30;99.90;;;;;;2025379;28;20272;-86
2023/12/07 04:45:14;;;;;;;4.87;3.43;;;-3.30;99.90;;;;;;2028628;28;20339;-86
2023/12/07 04:46:15;;;;;;;4.53;3.07;;;-3.30;99.90;;;;;;2018436;28;20235;-85
2023/12/07 04:47:16;;;;;;;5.37;3.00;;;-3.30;99.90;;;;;;2031903;28;20278;-85
2023/12/07 04:48:16;;;;;;;3.23;2.63;;;-3.40;99.90;;;;;;2041616;28;20243;-86
2023/12/07 04:49:17;;;;;;;5.63;2.83;;;-3.30;99.90;;;;;;2040556;29;20298;-86
2023/12/07 04:50:18;;;;;;;4.07;2.47;;;-3.40;99.90;;;;;;2040389;29;20265;-86
2023/12/07 04:51:18;;;;;;;5.40;2.97;;;-3.40;99.90;;;;;;2073903;28;20270;-86
2023/12/07 04:52:19;;;;;;;11.90;7.10;;;-3.30;99.90;;;;;;2065892;28;20237;-85
2023/12/07 04:53:20;;;;;;;34.97;19.87;;;-3.30;99.90;;;;;;2032598;28;20326;-86
2023/12/07 04:54:20;;;;;;;36.97;21.03;;;-3.40;99.90;;;;;;2032398;28;20236;-86
2023/12/07 04:55:21;;;;;;;24.27;14.20;;;-3.40;99.90;;;;;;2025428;28;20238;-85
2023/12/07 04:56:22;;;;;;;20.90;11.47;;;-3.30;99.90;;;;;;2017290;28;20729;-85
2023/12/07 04:57:23;;;;;;;17.93;9.90;;;-3.30;99.90;;;;;;2031082;29;20246;-84
2023/12/07 04:58:23;;;;;;;8.67;4.87;;;-3.30;99.90;;;;;;2031578;29;20240;-84
2023/12/07 04:59:24;;;;;;;8.27;4.80;;;-3.30;99.90;;;;;;2040081;29;20240;-85
2023/12/07 05:00:25;;;;;;;6.73;3.57;;;-3.30;99.90;;;;;;2032838;28;20306;-85
2023/12/07 05:01:25;;;;;;;6.70;4.20;;;-3.30;99.90;;;;;;2032993;29;20313;-85
2023/12/07 05:02:27;;;;;;;3.80;3.00;;;-3.30;99.90;;;;;;2034964;28;20270;-85
2023/12/07 05:03:28;;;;;;;6.05;2.90;;;-3.40;99.90;;;;;;2034591;28;20247;-84
2023/12/07 05:04:29;;;;;;;6.43;3.10;;;-3.40;99.90;;;;;;2037201;28;20249;-84
2023/12/07 05:05:29;;;;;;;6.20;2.70;;;-3.40;99.90;;;;;;2030337;28;20247;-84
2023/12/07 05:06:31;;;;;;;3.80;2.67;;;-3.40;99.90;;;;;;2038782;28;20248;-85
2023/12/07 05:07:32;;;;;;;8.23;2.90;;;-3.40;99.90;;;;;;2031775;29;20232;-85
2023/12/07 05:08:33;;;;;;;3.97;2.73;;;-3.50;99.90;;;;;;2029930;28;20243;-85
2023/12/07 05:09:34;;;;;;;3.97;2.43;;;-3.50;99.90;;;;;;2025158;29;20749;-85
2023/12/07 05:10:35;;;;;;;5.73;2.50;;;-3.40;99.90;;;;;;2025783;29;21034;-85
2023/12/07 05:11:36;;;;;;;4.60;3.33;;;-3.40;99.90;;;;;;2026567;28;20244;-85
2023/12/07 05:12:36;;;;;;;3.58;2.42;;;-3.40;99.90;;;;;;2028951;28;20231;-84
2023/12/07 05:13:37;;;;;;;3.87;2.50;;;-3.50;99.90;;;;;;2034024;29;20229;-85
2023/12/07 05:14:38;;;;;;;3.93;2.00;;;-3.50;99.90;;;;;;2034560;29;20317;-85
2023/12/07 05:15:39;;;;;;;6.73;3.17;;;-3.50;99.90;;;;;;2025755;29;20251;-85
2023/12/07 05:16:40;;;;;;;4.20;3.17;;;-3.50;99.90;;;;;;2026392;28;20286;-85
2023/12/07 05:17:41;;;;;;;4.00;2.75;;;-3.50;99.90;;;;;;2020644;28;20229;-85
2023/12/07 05:18:42;;;;;;;6.83;3.90;;;-3.60;99.90;;;;;;2015515;28;20265;-85
2023/12/07 05:19:45;;;;;;;4.90;3.45;;;-3.60;99.90;;;;;;2026693;28;20236;-85
2023/12/07 05:20:45;;;;;;;5.00;3.05;;;-3.50;99.90;;;;;;2033462;29;20306;-84